Time;durP1;ratioP1;P1;durP2;ratioP2;P2;SDS_P1;SDS_P2;PMS_P1;PMS_P2;Temp;Humidity;BMP_temperature;BMP_pressure;BME280_temperature;BME280_humidity;BME280_pressure;Samples;Min_cycle;Max_cycle;Signal;HPM_P1;HPM_P2
2021/11/29 00:01:44;;;;;;;27.73;13.63;;;;;;;0.64;99.49;97091.50;5065748;28;20059;-70
2021/11/29 00:04:10;;;;;;;30.25;14.25;;;;;;;0.58;99.33;97095.84;5065218;28;20024;-70
2021/11/29 00:06:35;;;;;;;27.25;14.07;;;;;;;0.69;99.49;97099.25;5065587;28;20021;-70
2021/11/29 00:09:01;;;;;;;32.58;15.63;;;;;;;0.68;99.08;97103.56;5065568;28;20255;-70
2021/11/29 00:11:26;;;;;;;32.30;14.88;;;;;;;0.72;99.26;97106.97;5065562;28;20029;-70
2021/11/29 00:13:52;;;;;;;30.25;15.18;;;;;;;0.78;99.44;97114.72;5065526;28;20017;-70
2021/11/29 00:16:17;;;;;;;34.40;16.90;;;;;;;0.83;99.93;97112.97;5064173;28;20100;-70
2021/11/29 00:18:43;;;;;;;34.58;15.35;;;;;;;0.88;99.68;97124.16;5064960;28;20033;-70
2021/11/29 00:21:11;;;;;;;34.88;16.27;;;;;;;0.83;99.90;97112.97;5065676;28;20024;-70
2021/11/29 00:23:36;;;;;;;31.85;15.15;;;;;;;0.90;99.86;97119.81;5065636;28;20029;-70
2021/11/29 00:26:01;;;;;;;32.40;15.13;;;;;;;0.93;99.81;97117.22;5065498;28;20071;-70
2021/11/29 00:28:27;;;;;;;34.88;17.60;;;;;;;0.96;100.00;97128.44;5065234;28;20024;-70
2021/11/29 00:30:52;;;;;;;34.83;17.75;;;;;;;0.87;100.00;97130.19;5064785;28;20036;-70
2021/11/29 00:33:18;;;;;;;36.85;16.80;;;;;;;0.93;100.00;97135.34;5065163;28;20244;-70
2021/11/29 00:35:44;;;;;;;32.55;16.52;;;;;;;0.94;100.00;97131.88;5065098;28;20032;-70
2021/11/29 00:38:10;;;;;;;34.95;16.30;;;;;;;0.97;100.00;97144.81;5065067;28;20151;-70
2021/11/29 00:40:37;;;;;;;34.67;15.57;;;;;;;1.03;100.00;97147.38;5065045;28;20027;-70
2021/11/29 00:43:03;;;;;;;40.00;18.13;;;;;;;1.02;100.00;97148.25;5065679;28;20092;-70
2021/11/29 00:45:28;;;;;;;47.08;19.08;;;;;;;0.96;100.00;97156.03;5065765;28;20033;-70
2021/11/29 00:47:53;;;;;;;37.42;16.25;;;;;;;0.96;100.00;97158.63;5066091;28;20028;-70
2021/11/29 00:50:20;;;;;;;36.88;17.55;;;;;;;1.00;100.00;97160.34;5065761;28;20036;-70
2021/11/29 00:52:45;;;;;;;34.97;15.85;;;;;;;1.06;100.00;97165.47;5065731;28;20032;-70
2021/11/29 00:55:12;;;;;;;34.45;16.10;;;;;;;0.99;100.00;97164.66;5065649;28;20021;-70
2021/11/29 00:57:38;;;;;;;38.90;18.35;;;;;;;0.95;100.00;97162.09;5065642;28;20118;-70
2021/11/29 01:00:07;;;;;;;35.45;16.13;;;;;;;0.98;100.00;97164.69;5065859;28;20320;-70
2021/11/29 01:02:33;;;;;;;37.78;18.17;;;;;;;1.01;100.00;97164.66;5065450;28;20029;-70
2021/11/29 01:04:58;;;;;;;37.33;17.63;;;;;;;1.05;100.00;97166.38;5065398;28;20036;-70
2021/11/29 01:07:23;;;;;;;35.70;17.17;;;;;;;1.14;100.00;97166.31;5065376;28;20025;-70
2021/11/29 01:09:48;;;;;;;31.42;16.90;;;;;;;1.15;99.99;97168.03;5065432;28;20066;-70
2021/11/29 01:12:14;;;;;;;43.15;18.95;;;;;;;1.11;99.92;97168.91;5065416;28;20021;-70
2021/11/29 01:14:39;;;;;;;38.08;17.58;;;;;;;1.11;99.77;97166.31;5065338;28;20053;-70
2021/11/29 01:17:04;;;;;;;39.42;18.13;;;;;;;1.16;99.84;97169.72;5065131;28;20036;-70
2021/11/29 01:19:30;;;;;;;37.97;18.98;;;;;;;1.09;99.79;97173.22;5065236;28;20024;-70
2021/11/29 01:21:55;;;;;;;41.75;18.17;;;;;;;1.07;99.71;97182.72;5065215;28;20029;-70
2021/11/29 01:24:21;;;;;;;40.85;18.63;;;;;;;1.06;100.00;97178.44;5065155;28;20032;-70
2021/11/29 01:26:46;;;;;;;43.42;19.60;;;;;;;1.04;100.00;97185.38;5065306;28;20027;-70
2021/11/29 01:29:11;;;;;;;46.70;22.38;;;;;;;1.05;99.91;97192.25;5064716;28;20317;-70
2021/11/29 01:31:37;;;;;;;48.08;24.35;;;;;;;1.04;100.00;97190.56;5065239;28;20035;-70
2021/11/29 01:34:02;;;;;;;39.53;19.98;;;;;;;1.06;100.00;97186.19;5064950;28;20078;-70
2021/11/29 01:36:27;;;;;;;39.70;18.58;;;;;;;1.08;100.00;97192.25;5064909;28;20084;-70
2021/11/29 01:38:53;;;;;;;38.88;18.40;;;;;;;1.05;100.00;97193.13;5064901;28;20032;-70
2021/11/29 01:41:18;;;;;;;36.60;17.90;;;;;;;1.08;100.00;97193.09;5065073;28;20020;-70
2021/11/29 01:43:45;;;;;;;40.17;18.27;;;;;;;1.08;100.00;97187.06;5064845;28;20029;-70
2021/11/29 01:46:11;;;;;;;35.45;16.60;;;;;;;1.07;100.00;97190.50;5064636;28;20031;-70
2021/11/29 01:48:36;;;;;;;41.30;17.83;;;;;;;1.10;100.00;97193.09;5064934;28;20024;-70
2021/11/29 01:51:03;;;;;;;36.75;17.02;;;;;;;1.12;100.00;97200.00;5064640;28;20024;-70
2021/11/29 01:53:30;;;;;;;38.45;17.17;;;;;;;1.12;100.00;97210.38;5064869;28;20268;-70
2021/11/29 01:55:58;;;;;;;37.35;16.48;;;;;;;1.18;100.00;97204.28;5064519;28;20024;-70
2021/11/29 01:58:26;;;;;;;38.97;17.95;;;;;;;1.26;100.00;97211.13;5064535;28;20216;-70
2021/11/29 02:00:53;;;;;;;33.63;16.60;;;;;;;1.30;99.61;97214.56;5064706;28;20066;-70
2021/11/29 02:03:23;;;;;;;40.35;16.95;;;;;;;1.30;99.56;97219.75;5064343;28;20029;-70
2021/11/29 02:05:48;;;;;;;34.42;15.63;;;;;;;1.35;99.38;97224.03;5064306;28;20021;-70
2021/11/29 02:08:14;;;;;;;36.20;17.13;;;;;;;1.29;99.11;97223.19;5064239;28;20025;-70
2021/11/29 02:10:39;;;;;;;34.75;16.58;;;;;;;1.33;99.12;97228.34;5064400;28;20084;-70
2021/11/29 02:13:04;;;;;;;36.78;15.68;;;;;;;1.35;99.44;97233.53;5075055;28;20272;-70
2021/11/29 02:15:30;;;;;;;32.92;15.85;;;;;;;1.35;99.17;97228.34;5065687;28;20020;-70
2021/11/29 02:17:57;;;;;;;31.90;15.77;;;;;;;1.37;99.18;97230.09;5064048;28;20064;-70
2021/11/29 02:20:23;;;;;;;32.65;16.27;;;;;;;1.37;98.97;97226.63;5064140;28;20228;-70
2021/11/29 02:22:50;;;;;;;38.03;16.23;;;;;;;1.35;98.70;97230.94;5064070;28;20375;-70
2021/11/29 02:25:17;;;;;;;36.05;17.73;;;;;;;1.19;98.81;97237.09;5064012;28;20020;-70
2021/11/29 02:27:43;;;;;;;34.60;16.25;;;;;;;1.09;99.21;97240.59;5064223;28;20024;-70
2021/11/29 02:30:11;;;;;;;43.40;17.33;;;;;;;1.17;99.65;97239.69;5064027;28;20269;-70
2021/11/29 02:32:36;;;;;;;32.22;15.38;;;;;;;1.22;99.43;97242.25;5063945;28;20382;-70
2021/11/29 02:35:02;;;;;;;41.10;16.63;;;;;;;1.26;99.35;97241.34;5064197;28;20021;-70
2021/11/29 02:37:27;;;;;;;35.80;14.80;;;;;;;1.34;99.22;97242.19;5063835;28;20025;-70
2021/11/29 02:39:53;;;;;;;34.92;16.63;;;;;;;1.36;99.06;97246.47;5063185;28;20021;-70
2021/11/29 02:42:18;;;;;;;34.65;17.17;;;;;;;1.30;99.04;97245.69;5063868;28;20221;-70
2021/11/29 02:44:46;;;;;;;36.40;17.63;;;;;;;1.28;98.98;97250.00;5063782;28;20067;-70
2021/11/29 02:47:11;;;;;;;37.63;17.38;;;;;;;1.10;99.59;97250.06;5063779;28;20025;-70
2021/11/29 02:49:36;;;;;;;34.88;16.70;;;;;;;1.12;99.96;97251.81;5063814;28;20032;-70
2021/11/29 02:52:06;;;;;;;34.17;16.80;;;;;;;1.16;100.00;97263.88;5063684;28;20028;-70
2021/11/29 02:54:34;;;;;;;35.42;15.93;;;;;;;1.37;100.00;97268.09;5064012;28;20223;-70
2021/11/29 02:57:04;;;;;;;34.38;16.13;;;;;;;1.39;99.55;97261.19;5063996;28;20028;-70
2021/11/29 02:59:31;;;;;;;37.33;16.10;;;;;;;1.30;99.38;97267.25;5063591;28;20025;-70
2021/11/29 03:02:01;;;;;;;31.70;15.90;;;;;;;1.27;99.38;97277.63;5063683;28;20031;-70
2021/11/29 03:04:28;;;;;;;30.58;15.48;;;;;;;1.27;99.70;97275.03;5063758;28;20052;-70
2021/11/29 03:06:54;;;;;;;32.38;14.30;;;;;;;1.37;98.99;97281.06;5063674;28;20029;-69
2021/11/29 03:09:20;;;;;;;30.30;15.25;;;;;;;1.37;98.87;97279.34;5063527;28;20029;-70
2021/11/29 03:11:47;;;;;;;36.95;16.52;;;;;;;1.32;98.83;97285.38;5063556;28;20032;-70
2021/11/29 03:14:12;;;;;;;31.73;15.57;;;;;;;1.17;98.99;97293.25;5063570;28;20027;-70
2021/11/29 03:16:38;;;;;;;33.40;16.45;;;;;;;1.13;98.79;97289.78;5063392;28;20045;-70
2021/11/29 03:19:03;;;;;;;29.05;15.32;;;;;;;1.11;98.77;97295.88;5063526;28;20025;-70
2021/11/29 03:21:30;;;;;;;34.50;15.93;;;;;;;1.04;99.17;97299.34;5063524;28;20088;-70
2021/11/29 03:23:59;;;;;;;32.85;15.20;;;;;;;1.06;98.98;97302.78;5063462;28;20025;-70
2021/11/29 03:26:25;;;;;;;33.30;15.32;;;;;;;0.99;98.95;97301.94;5063373;28;20029;-70
2021/11/29 03:28:54;;;;;;;33.60;15.77;;;;;;;0.95;98.84;97309.72;5063328;28;20029;-70
2021/11/29 03:31:21;;;;;;;32.85;14.82;;;;;;;0.93;98.46;97306.28;5063418;28;20350;-70
2021/11/29 03:33:47;;;;;;;32.85;14.82;;;;;;;0.74;98.67;97304.59;5063364;28;20025;-70
2021/11/29 03:36:13;;;;;;;33.65;15.02;;;;;;;0.60;98.71;97301.19;5063354;28;20020;-70
2021/11/29 03:38:38;;;;;;;30.25;14.85;;;;;;;0.59;98.89;97314.97;5063366;28;20047;-70
2021/11/29 03:41:06;;;;;;;33.35;15.00;;;;;;;0.57;99.14;97311.56;5063310;28;20029;-70
2021/11/29 03:43:31;;;;;;;32.78;14.52;;;;;;;0.40;98.94;97308.09;5063259;28;20036;-70
2021/11/29 03:45:57;;;;;;;32.05;14.95;;;;;;;0.41;98.77;97310.69;5063205;28;20049;-70
2021/11/29 03:48:22;;;;;;;32.75;14.35;;;;;;;0.34;98.58;97319.31;5063512;28;20028;-70
2021/11/29 03:50:48;;;;;;;30.50;13.13;;;;;;;0.31;98.29;97324.50;5064255;28;20028;-70
2021/11/29 03:53:14;;;;;;;32.25;14.35;;;;;;;0.19;98.68;97318.47;5067126;28;20032;-70
2021/11/29 03:55:39;;;;;;;35.13;14.77;;;;;;;0.13;98.39;97326.25;5067131;28;20051;-70
2021/11/29 03:58:05;;;;;;;29.98;13.13;;;;;;;0.08;98.36;97335.72;5066790;28;20036;-70
2021/11/29 04:00:30;;;;;;;32.17;14.02;;;;;;;0.03;98.18;97332.28;5066759;28;20028;-70
2021/11/29 04:02:56;;;;;;;33.45;13.80;;;;;;;-0.07;98.37;97337.44;5066962;28;20083;-70
2021/11/29 04:05:21;;;;;;;27.60;13.02;;;;;;;-0.04;98.33;97342.59;5066609;28;20021;-70
2021/11/29 04:07:48;;;;;;;28.70;13.45;;;;;;;-0.29;97.66;97337.38;5066509;28;20049;-69
2021/11/29 04:10:14;;;;;;;31.67;14.05;;;;;;;-0.40;98.90;97342.56;5066606;28;20212;-70
2021/11/29 04:12:40;;;;;;;30.52;13.63;;;;;;;-0.48;98.22;97352.00;5066537;28;20351;-70
2021/11/29 04:15:06;;;;;;;37.10;13.32;;;;;;;-0.51;98.18;97351.97;5066441;28;20025;-69
2021/11/29 04:17:32;;;;;;;30.38;11.88;;;;;;;-0.55;98.39;97357.13;5066267;28;20067;-70
2021/11/29 04:19:57;;;;;;;31.13;12.68;;;;;;;-0.58;98.41;97368.31;5066391;28;20037;-70
2021/11/29 04:22:22;;;;;;;22.25;10.93;;;;;;;-0.57;98.18;97364.88;5066363;28;20221;-70
2021/11/29 04:24:48;;;;;;;28.25;11.90;;;;;;;-0.62;98.43;97371.75;5066298;28;20094;-70
2021/11/29 04:27:14;;;;;;;29.75;12.07;;;;;;;-0.62;98.31;97371.75;5066413;28;20033;-70
2021/11/29 04:29:45;;;;;;;28.23;12.57;;;;;;;-0.73;98.11;97373.41;5066212;28;20051;-70
2021/11/29 04:32:11;;;;;;;29.00;12.15;;;;;;;-0.75;97.89;97377.75;5066270;28;20025;-70
2021/11/29 04:34:37;;;;;;;27.48;12.23;;;;;;;-0.85;97.88;97386.28;5066106;28;20048;-70
2021/11/29 04:37:03;;;;;;;33.25;13.27;;;;;;;-0.85;97.83;97388.84;5066099;28;20084;-70
2021/11/29 04:39:30;;;;;;;26.45;11.52;;;;;;;-0.87;97.39;97388.00;5065981;28;20031;-69
2021/11/29 04:41:56;;;;;;;31.67;13.32;;;;;;;-1.00;97.29;97393.97;5065992;28;20099;-70
2021/11/29 04:44:21;;;;;;;30.23;12.20;;;;;;;-1.18;97.30;97401.59;5065914;28;20036;-70
2021/11/29 04:46:46;;;;;;;29.92;12.40;;;;;;;-1.19;97.33;97402.44;5079711;28;20323;-70
2021/11/29 04:49:12;;;;;;;33.65;11.98;;;;;;;-1.21;97.66;97408.44;5085902;28;20077;-70
2021/11/29 04:51:37;;;;;;;31.23;11.57;;;;;;;-1.23;97.87;97416.16;5085862;28;20028;-70
2021/11/29 04:54:03;;;;;;;21.67;10.02;;;;;;;-1.27;97.92;97409.25;5085792;28;20024;-69
2021/11/29 04:56:29;;;;;;;25.52;10.93;;;;;;;-1.38;97.79;97410.91;5086048;28;20016;-70
2021/11/29 04:58:55;;;;;;;28.00;11.85;;;;;;;-1.32;98.39;97420.41;5085746;28;20032;-70
2021/11/29 05:01:21;;;;;;;32.05;13.00;;;;;;;-1.30;98.86;97422.13;5085688;28;20220;-70
2021/11/29 05:03:47;;;;;;;28.88;12.10;;;;;;;-1.30;98.88;97422.13;5072235;28;20031;-70
2021/11/29 05:06:12;;;;;;;32.97;11.75;;;;;;;-1.32;98.88;97423.88;5064851;28;20021;-70
2021/11/29 05:08:38;;;;;;;27.63;11.52;;;;;;;-1.24;98.86;97429.94;5065368;28;20209;-70
2021/11/29 05:11:03;;;;;;;31.40;12.45;;;;;;;-1.20;98.58;97442.00;5065688;28;20021;-70
2021/11/29 05:13:29;;;;;;;30.35;12.50;;;;;;;-1.31;98.25;97446.22;5065635;28;20017;-70
2021/11/29 05:15:55;;;;;;;30.10;12.18;;;;;;;-1.45;98.62;97449.56;5065200;28;20041;-70
2021/11/29 05:18:21;;;;;;;23.73;11.05;;;;;;;-1.34;99.19;97446.19;5065597;28;20309;-70
2021/11/29 05:20:46;;;;;;;25.52;11.65;;;;;;;-1.30;98.99;97455.69;5065261;28;20074;-70
2021/11/29 05:23:11;;;;;;;24.10;10.93;;;;;;;-1.37;98.60;97453.03;5065246;28;20092;-70
2021/11/29 05:25:38;;;;;;;25.02;10.77;;;;;;;-1.38;98.63;97456.50;5065028;28;20056;-70
2021/11/29 05:28:03;;;;;;;28.25;11.48;;;;;;;-1.36;98.53;97459.97;5065383;28;20209;-70
2021/11/29 05:30:29;;;;;;;24.98;11.13;;;;;;;-1.41;98.62;97467.66;5065047;28;20021;-70
2021/11/29 05:32:54;;;;;;;27.77;11.65;;;;;;;-1.48;99.12;97465.88;5065223;28;20393;-70
2021/11/29 05:35:20;;;;;;;32.42;13.00;;;;;;;-1.46;99.27;97474.47;5064954;28;20024;-70
2021/11/29 05:37:45;;;;;;;31.77;12.40;;;;;;;-1.46;99.51;97474.47;5064908;28;20070;-70
2021/11/29 05:40:11;;;;;;;28.05;12.32;;;;;;;-1.46;99.24;97479.63;5064866;28;20029;-70
2021/11/29 05:42:36;;;;;;;26.73;9.48;;;;;;;-1.46;99.40;97483.97;5065007;28;20336;-70
2021/11/29 05:45:02;;;;;;;28.38;9.73;;;;;;;-1.44;99.40;97488.28;5064694;28;20029;-70
2021/11/29 05:47:27;;;;;;;28.85;10.65;;;;;;;-1.42;99.34;97502.06;5064972;28;20324;-70
2021/11/29 05:49:52;;;;;;;23.13;10.00;;;;;;;-1.45;99.00;97496.88;5064917;28;20020;-70
2021/11/29 05:52:18;;;;;;;23.27;9.35;;;;;;;-1.54;98.58;97511.38;5064643;28;20055;-70
2021/11/29 05:54:43;;;;;;;19.05;7.72;;;;;;;-1.57;98.09;97506.19;5064598;28;20082;-70
2021/11/29 05:57:09;;;;;;;16.85;7.53;;;;;;;-1.74;97.50;97518.91;5064587;28;20025;-70
2021/11/29 05:59:34;;;;;;;17.10;8.60;;;;;;;-1.69;97.53;97517.25;5064493;28;20325;-70
2021/11/29 06:02:00;;;;;;;22.73;7.25;;;;;;;-1.68;97.67;97524.13;5064449;28;20032;-70
2021/11/29 06:04:25;;;;;;;14.30;7.40;;;;;;;-1.60;97.75;97530.25;5064363;28;20091;-70
2021/11/29 06:06:50;;;;;;;26.45;9.27;;;;;;;-1.50;97.50;97528.63;5064304;28;20029;-70
2021/11/29 06:09:17;;;;;;;19.27;8.25;;;;;;;-1.69;96.77;97537.91;5064438;28;20025;-70
2021/11/29 06:11:42;;;;;;;28.08;9.35;;;;;;;-1.72;97.46;97535.28;5064266;28;20087;-70
2021/11/29 06:14:08;;;;;;;21.55;8.70;;;;;;;-1.68;97.46;97543.94;5063463;28;20372;-70
2021/11/29 06:16:33;;;;;;;17.95;8.45;;;;;;;-1.67;97.29;97546.53;5063937;28;20383;-70
2021/11/29 06:18:59;;;;;;;16.40;7.32;;;;;;;-1.66;96.94;97555.97;5064144;28;20033;-70
2021/11/29 06:21:24;;;;;;;18.98;8.48;;;;;;;-1.84;97.20;97558.34;5064124;28;20276;-70
2021/11/29 06:23:49;;;;;;;24.58;8.48;;;;;;;-1.82;97.75;97564.41;5064160;28;20052;-70
2021/11/29 06:26:20;;;;;;;24.23;7.80;;;;;;;-1.78;98.53;97573.03;5064002;28;20221;-70
2021/11/29 06:28:45;;;;;;;25.17;7.45;;;;;;;-1.83;98.31;97570.41;5064134;28;20088;-70
2021/11/29 06:31:11;;;;;;;19.80;8.25;;;;;;;-1.79;98.74;97577.31;5064006;28;20021;-70
2021/11/29 06:33:36;;;;;;;20.38;8.05;;;;;;;-1.76;98.73;97582.53;5063963;28;20426;-70
2021/11/29 06:36:02;;;;;;;24.08;9.05;;;;;;;-1.74;98.75;97591.13;5063962;28;20088;-70
2021/11/29 06:38:28;;;;;;;16.75;7.55;;;;;;;-1.80;98.61;97580.75;5063917;28;20224;-70
2021/11/29 06:40:56;;;;;;;18.63;7.50;;;;;;;-1.75;98.67;97594.56;5063916;28;20092;-70
2021/11/29 06:43:22;;;;;;;26.48;8.30;;;;;;;-1.88;97.71;97597.84;5063942;28;20024;-70
2021/11/29 06:45:48;;;;;;;21.20;6.88;;;;;;;-1.90;98.07;97594.38;5063681;28;20021;-70
2021/11/29 06:48:14;;;;;;;20.67;7.78;;;;;;;-1.85;98.57;97597.88;5063953;28;20021;-70
2021/11/29 06:50:40;;;;;;;18.20;8.07;;;;;;;-1.78;98.68;97598.84;5063795;28;20193;-70
2021/11/29 06:53:06;;;;;;;20.70;8.45;;;;;;;-1.82;98.78;97613.38;5064047;28;20100;-70
2021/11/29 06:55:32;;;;;;;19.65;7.90;;;;;;;-1.78;98.71;97604.00;5064002;28;20017;-70
2021/11/29 06:57:58;;;;;;;19.63;8.38;;;;;;;-1.78;98.13;97604.84;5063742;28;20043;-70
2021/11/29 07:00:24;;;;;;;17.52;7.70;;;;;;;-1.82;97.25;97608.22;5063960;28;20264;-70
2021/11/29 07:02:50;;;;;;;21.63;8.05;;;;;;;-1.90;97.25;97614.16;5063778;28;20025;-70
2021/11/29 07:05:16;;;;;;;21.42;8.05;;;;;;;-1.96;97.17;97608.91;5063521;28;20028;-70
2021/11/29 07:07:42;;;;;;;19.70;8.23;;;;;;;-1.93;97.42;97630.41;5063651;28;20021;-70
2021/11/29 07:10:08;;;;;;;21.38;8.70;;;;;;;-1.96;97.18;97629.53;5063620;28;20020;-70
2021/11/29 07:12:35;;;;;;;19.40;8.05;;;;;;;-1.91;97.05;97633.91;5063607;28;20017;-70
2021/11/29 07:15:00;;;;;;;23.20;9.57;;;;;;;-1.86;97.62;97633.97;5063609;28;20340;-70
2021/11/29 07:17:26;;;;;;;22.08;8.88;;;;;;;-1.92;97.47;97636.47;5063416;28;20059;-70
2021/11/29 07:19:54;;;;;;;22.13;9.73;;;;;;;-1.87;97.74;97640.81;5063535;28;20085;-70
2021/11/29 07:22:21;;;;;;;24.38;10.00;;;;;;;-1.84;97.63;97638.28;5063510;28;20051;-70
2021/11/29 07:24:48;;;;;;;22.13;10.80;;;;;;;-1.78;97.86;97646.09;5061954;28;20217;-70
2021/11/29 07:27:13;;;;;;;27.88;10.75;;;;;;;-1.59;97.97;97653.22;5046617;28;20028;-70
2021/11/29 07:29:38;;;;;;;23.25;10.23;;;;;;;-1.51;98.71;97651.59;5047374;28;20036;-69
2021/11/29 07:32:04;;;;;;;25.98;10.40;;;;;;;-1.36;98.60;97662.09;5047311;28;20045;-70
2021/11/29 07:34:29;;;;;;;28.17;11.05;;;;;;;-1.17;98.64;97669.19;5047256;28;20025;-70
2021/11/29 07:36:54;;;;;;;23.20;10.43;;;;;;;-1.05;98.68;97668.44;5047489;28;20368;-70
2021/11/29 07:39:20;;;;;;;27.08;10.38;;;;;;;-0.93;98.27;97669.44;5047192;28;20317;-70
2021/11/29 07:41:45;;;;;;;27.10;11.48;;;;;;;-0.72;97.35;97680.00;5047173;28;20136;-70
2021/11/29 07:44:11;;;;;;;30.75;13.02;;;;;;;-0.54;97.53;97684.47;5046237;28;20017;-70
2021/11/29 07:46:36;;;;;;;26.85;12.00;;;;;;;-0.35;97.28;97700.09;5046393;28;20253;-70
2021/11/29 07:49:03;;;;;;;32.53;13.93;;;;;;;-0.17;96.96;97692.50;5046372;28;20021;-70
2021/11/29 07:51:29;;;;;;;30.48;13.38;;;;;;;-0.05;97.19;97687.41;5046035;28;20074;-70
2021/11/29 07:53:55;;;;;;;32.85;13.25;;;;;;;0.15;97.30;97694.44;5046016;28;20029;-70
2021/11/29 07:56:20;;;;;;;28.70;13.32;;;;;;;0.32;97.30;97697.97;5045950;28;20082;-70
2021/11/29 07:58:45;;;;;;;28.48;13.45;;;;;;;0.41;96.70;97703.22;5045528;28;20259;-70
2021/11/29 08:01:11;;;;;;;34.83;14.65;;;;;;;0.46;96.64;97701.50;5046137;28;20364;-70
2021/11/29 08:03:38;;;;;;;32.75;13.43;;;;;;;0.48;95.98;97715.31;5056389;28;20021;-70
2021/11/29 08:06:03;;;;;;;29.75;13.13;;;;;;;0.54;95.86;97720.53;5054267;28;20059;-70
2021/11/29 08:08:28;;;;;;;31.17;13.32;;;;;;;0.48;96.01;97721.38;5056135;28;20036;-70
2021/11/29 08:10:53;;;;;;;30.42;13.82;;;;;;;0.55;95.87;97727.44;5054842;28;20031;-70
2021/11/29 08:13:19;;;;;;;30.92;13.88;;;;;;;0.57;95.46;97721.41;5056980;28;20023;-70
2021/11/29 08:15:44;;;;;;;26.88;13.18;;;;;;;0.65;95.46;97724.03;5066261;28;20032;-70
2021/11/29 08:18:10;;;;;;;26.55;11.77;;;;;;;0.69;95.04;97730.97;5066696;28;20317;-70
2021/11/29 08:20:36;;;;;;;30.45;14.52;;;;;;;0.78;94.83;97731.00;5066457;28;20047;-70
2021/11/29 08:23:01;;;;;;;32.58;12.75;;;;;;;0.97;94.37;97737.97;5066343;28;20237;-70
2021/11/29 08:25:27;;;;;;;23.30;12.40;;;;;;;0.95;94.15;97739.72;5066200;28;20221;-70
2021/11/29 08:27:53;;;;;;;27.50;12.43;;;;;;;1.20;94.43;97751.91;5066450;28;20029;-70
2021/11/29 08:30:20;;;;;;;30.55;12.82;;;;;;;1.48;93.33;97748.47;5066198;28;20312;-70
2021/11/29 08:32:46;;;;;;;32.83;14.40;;;;;;;2.48;90.35;97760.63;5065892;28;20081;-70
2021/11/29 08:35:13;;;;;;;30.83;13.70;;;;;;;2.96;87.13;97760.47;5066118;28;20024;-70
2021/11/29 08:37:43;;;;;;;27.67;13.38;;;;;;;2.86;86.83;97763.09;5064933;28;20028;-70
2021/11/29 08:40:10;;;;;;;24.05;13.25;;;;;;;3.44;85.66;97775.88;5066125;28;20088;-69
2021/11/29 08:42:35;;;;;;;26.52;13.10;;;;;;;3.82;83.19;97773.91;5065951;28;20025;-70
2021/11/29 08:45:02;;;;;;;30.50;14.13;;;;;;;4.07;82.49;97775.47;5065917;28;20053;-70
2021/11/29 08:47:28;;;;;;;31.42;13.55;;;;;;;3.37;83.59;97779.38;5066133;28;20032;-70
2021/11/29 08:49:54;;;;;;;30.40;13.85;;;;;;;3.14;85.04;97778.63;5066126;28;20340;-70
2021/11/29 08:52:20;;;;;;;27.73;14.50;;;;;;;3.04;85.01;97789.06;5065832;28;20352;-70
2021/11/29 08:54:45;;;;;;;30.73;14.07;;;;;;;2.71;86.67;97779.59;5066045;28;20021;-70
2021/11/29 08:57:11;;;;;;;31.30;13.48;;;;;;;2.52;87.54;97777.91;5065715;28;20387;-70
2021/11/29 08:59:37;;;;;;;30.13;14.82;;;;;;;2.69;88.31;97783.94;5065651;28;20032;-70
2021/11/29 09:02:03;;;;;;;29.95;14.13;;;;;;;3.13;87.29;97789.03;5065645;28;20256;-70
2021/11/29 09:04:29;;;;;;;32.35;14.88;;;;;;;3.37;86.25;97794.97;5065473;28;20048;-69
2021/11/29 09:06:55;;;;;;;26.60;13.40;;;;;;;3.35;86.48;97801.91;5065467;28;20224;-70
2021/11/29 09:09:21;;;;;;;26.70;13.73;;;;;;;3.75;84.79;97798.25;5065505;28;20370;-69
2021/11/29 09:11:46;;;;;;;32.75;13.13;;;;;;;3.81;84.89;97803.41;5065715;28;20020;-70
2021/11/29 09:14:11;;;;;;;24.17;12.75;;;;;;;4.38;83.54;97805.59;5065411;28;20028;-70
2021/11/29 09:16:37;;;;;;;28.00;12.32;;;;;;;4.45;82.18;97804.66;5065153;28;20056;-70
2021/11/29 09:19:03;;;;;;;20.48;11.32;;;;;;;4.81;81.17;97818.22;5065570;28;20084;-70
2021/11/29 09:21:29;;;;;;;29.73;12.40;;;;;;;5.11;79.52;97812.69;5065517;28;20016;-70
2021/11/29 09:23:54;;;;;;;23.05;11.40;;;;;;;4.80;79.96;97813.88;5065211;28;20024;-70
2021/11/29 09:26:20;;;;;;;25.15;11.40;;;;;;;5.07;79.44;97824.03;5065144;28;20047;-70
2021/11/29 09:28:45;;;;;;;24.55;11.48;;;;;;;4.42;80.72;97820.31;5065135;28;20029;-70
2021/11/29 09:31:11;;;;;;;21.10;11.23;;;;;;;3.98;82.14;97824.97;5065153;28;20021;-70
2021/11/29 09:33:38;;;;;;;25.27;11.82;;;;;;;3.65;83.92;97829.53;5065057;28;20028;-70
2021/11/29 09:36:05;;;;;;;21.80;10.65;;;;;;;3.32;84.70;97820.13;5064981;28;20248;-70
2021/11/29 09:38:32;;;;;;;25.10;12.02;;;;;;;3.22;85.92;97831.44;5064950;28;20021;-70
2021/11/29 09:40:58;;;;;;;24.92;12.55;;;;;;;3.16;86.20;97841.00;5065123;28;20024;-70
2021/11/29 09:43:24;;;;;;;28.05;11.70;;;;;;;3.23;87.48;97851.34;5064723;28;20328;-70
2021/11/29 09:45:51;;;;;;;32.05;11.98;;;;;;;3.14;87.31;97843.63;5064987;28;20086;-70
2021/11/29 09:48:18;;;;;;;27.48;11.80;;;;;;;3.15;87.63;97855.72;5064673;28;20063;-70
2021/11/29 09:50:48;;;;;;;26.08;11.93;;;;;;;3.14;88.11;97858.34;5064859;28;20375;-70
2021/11/29 09:53:16;;;;;;;21.58;10.45;;;;;;;2.95;87.89;97848.84;5064939;28;20021;-70
2021/11/29 09:55:42;;;;;;;22.30;10.38;;;;;;;3.00;88.34;97850.56;5064609;28;20244;-70
2021/11/29 09:58:08;;;;;;;21.25;11.48;;;;;;;2.90;88.05;97854.06;5064599;28;20028;-70
2021/11/29 10:00:41;;;;;;;21.50;10.52;;;;;;;2.96;87.41;97854.03;5064761;28;20021;-70
2021/11/29 10:03:07;;;;;;;22.13;10.25;;;;;;;2.97;88.03;97858.38;5064714;28;20021;-70
2021/11/29 10:05:35;;;;;;;26.40;10.60;;;;;;;2.91;88.01;97860.13;5064351;28;20056;-70
2021/11/29 10:08:20;;;;;;;22.67;10.35;;;;;;;2.77;88.05;97867.06;5064619;28;20024;-70
2021/11/29 10:10:53;;;;;;;19.48;10.30;;;;;;;2.75;88.82;97864.47;5064379;28;20062;-70
2021/11/29 10:13:19;;;;;;;26.08;9.70;;;;;;;2.89;89.19;97867.94;5064598;28;20027;-70
2021/11/29 10:15:45;;;;;;;20.70;10.13;;;;;;;2.90;87.96;97869.66;5064083;28;20025;-70
2021/11/29 10:18:22;;;;;;;20.55;9.40;;;;;;;2.81;88.01;97868.81;5064273;28;20035;-70
2021/11/29 10:20:56;;;;;;;18.63;10.13;;;;;;;2.78;88.49;97869.66;5064183;28;20098;-70
2021/11/29 10:23:48;;;;;;;24.27;10.75;;;;;;;2.75;88.71;97874.00;5064122;28;20027;-70
2021/11/29 10:26:22;;;;;;;22.13;9.63;;;;;;;2.75;89.21;97863.63;5064070;28;20033;-70
2021/11/29 10:28:57;;;;;;;28.75;10.43;;;;;;;2.70;88.35;97866.22;5064091;28;20025;-70
2021/11/29 10:31:24;;;;;;;23.38;9.75;;;;;;;2.80;88.60;97862.72;5064066;28;20040;-70
2021/11/29 10:34:11;;;;;;;21.50;9.15;;;;;;;2.96;87.35;97859.25;5064047;28;20025;-70
2021/11/29 10:36:49;;;;;;;17.80;9.40;;;;;;;3.08;87.58;97859.22;5063937;28;20025;-70
2021/11/29 10:39:21;;;;;;;20.73;8.98;;;;;;;3.09;87.69;97855.75;5063969;28;20032;-70
2021/11/29 10:41:50;;;;;;;17.75;8.38;;;;;;;3.13;87.65;97856.63;5063988;28;20062;-70
2021/11/29 10:44:19;;;;;;;14.98;6.72;;;;;;;3.16;86.34;97862.66;5063896;28;20032;-70
2021/11/29 10:46:47;;;;;;;14.95;7.75;;;;;;;3.08;86.80;97860.94;5064045;28;20025;-70
2021/11/29 10:49:14;;;;;;;14.05;7.32;;;;;;;3.13;86.22;97852.25;5063841;28;20028;-70
2021/11/29 10:51:43;;;;;;;16.60;8.40;;;;;;;3.14;87.12;97859.22;5063824;28;20110;-70
2021/11/29 10:54:15;;;;;;;17.90;8.00;;;;;;;3.24;86.12;97849.63;5063810;28;20228;-70
2021/11/29 10:56:44;;;;;;;18.48;9.20;;;;;;;3.36;86.70;97847.84;5063794;28;20091;-70
2021/11/29 10:59:14;;;;;;;16.40;8.77;;;;;;;3.46;85.10;97852.16;5063734;28;20225;-70
2021/11/29 11:01:42;;;;;;;16.98;7.90;;;;;;;3.36;85.51;97866.03;5065859;28;20024;-70
2021/11/29 11:04:32;;;;;;;16.77;8.95;;;;;;;3.39;86.38;97866.03;5067688;28;20032;-69
2021/11/29 11:07:00;;;;;;;19.55;9.05;;;;;;;3.36;86.41;97863.44;5060298;28;20041;-70
2021/11/29 11:09:28;;;;;;;22.60;8.80;;;;;;;3.35;86.44;97873.88;5068106;28;20389;-70
2021/11/29 11:11:59;;;;;;;18.02;8.35;;;;;;;3.41;86.29;97882.50;5067668;28;20091;-70
2021/11/29 11:14:31;;;;;;;19.92;9.57;;;;;;;3.33;86.25;97881.69;5067654;28;20036;-70
2021/11/29 11:17:02;;;;;;;23.63;8.88;;;;;;;3.37;86.89;97883.41;5067608;28;20061;-70
2021/11/29 11:19:28;;;;;;;21.55;8.82;;;;;;;3.44;86.21;97890.31;5067569;28;20021;-70
2021/11/29 11:21:59;;;;;;;15.65;8.57;;;;;;;3.32;85.98;97892.94;5067542;28;20027;-70